createdAt,value
2022-11-20T00:01:05.351Z,235
2022-11-20T00:16:04.869Z,142
2022-11-20T00:31:05.906Z,177
2022-11-20T00:46:05.259Z,146
2022-11-20T01:01:05.247Z,181
2022-11-20T01:16:04.670Z,283
2022-11-20T01:31:05.619Z,200
2022-11-20T01:46:05.512Z,197
2022-11-20T02:01:05.290Z,227
2022-11-20T02:16:05.322Z,253
2022-11-20T02:31:05.034Z,222
2022-11-20T02:46:05.416Z,201
2022-11-20T03:01:05.115Z,194
2022-11-20T03:16:05.731Z,186
2022-11-20T03:31:05.274Z,198
2022-11-20T03:46:04.844Z,186
2022-11-20T04:01:05.715Z,186
2022-11-20T04:16:05.182Z,175
2022-11-20T04:31:04.868Z,150
2022-11-20T04:46:05.967Z,160
2022-11-20T05:01:04.774Z,168
2022-11-20T05:16:05.314Z,188
2022-11-20T05:31:05.217Z,168
2022-11-20T05:46:05.191Z,169
2022-11-20T06:01:05.802Z,162
2022-11-20T06:16:05.652Z,160
2022-11-20T06:31:05.279Z,163
2022-11-20T06:46:04.632Z,154
2022-11-20T07:01:05.768Z,145
2022-11-20T07:16:04.800Z,191
2022-11-20T07:31:04.785Z,168
2022-11-20T07:46:05.010Z,182
2022-11-20T08:01:05.917Z,183
2022-11-20T08:16:04.561Z,204
2022-11-20T08:31:05.254Z,167
2022-11-20T08:46:05.091Z,113
2022-11-20T09:01:04.919Z,110
2022-11-20T09:16:04.981Z,109
2022-11-20T09:31:05.265Z,116
2022-11-20T09:46:04.841Z,116
2022-11-20T10:01:04.889Z,85
2022-11-20T10:16:05.571Z,81
2022-11-20T10:31:04.981Z,79
2022-11-20T10:46:05.044Z,71
2022-11-20T11:01:04.969Z,69
2022-11-20T11:16:05.590Z,63
2022-11-20T11:31:05.230Z,70
2022-11-20T11:46:05.015Z,81
2022-11-20T12:01:05.375Z,76
2022-11-20T12:16:04.699Z,74
2022-11-20T12:31:05.362Z,75
2022-11-20T12:46:04.973Z,77
2022-11-20T13:01:05.886Z,74
2022-11-20T13:16:05.194Z,83
2022-11-20T13:31:05.412Z,84
2022-11-20T13:46:05.350Z,86
2022-11-20T14:01:05.449Z,98
2022-11-20T14:16:05.342Z,106
2022-11-20T14:31:05.108Z,113
2022-11-20T14:46:04.912Z,116
2022-11-20T15:01:05.199Z,120
2022-11-20T15:16:04.995Z,128
2022-11-20T15:31:04.939Z,146
2022-11-20T15:46:04.746Z,143
2022-11-20T16:01:04.970Z,145
2022-11-20T16:16:05.702Z,140
2022-11-20T16:31:05.521Z,136
2022-11-20T16:46:05.476Z,122
2022-11-20T17:01:05.493Z,122
2022-11-20T17:16:05.734Z,109
2022-11-20T17:31:04.714Z,128
2022-11-20T17:46:05.819Z,119
2022-11-20T18:01:05.162Z,130
2022-11-20T18:16:05.392Z,130
2022-11-20T18:31:05.754Z,139
2022-11-20T18:46:05.256Z,139
2022-11-20T19:01:05.545Z,139
2022-11-20T19:16:05.613Z,124
2022-11-20T19:31:04.875Z,136
2022-11-20T19:46:04.763Z,114
2022-11-20T20:01:05.269Z,134
2022-11-20T20:16:04.970Z,123
2022-11-20T20:31:05.031Z,152
2022-11-20T20:46:05.413Z,156
2022-11-20T21:01:05.371Z,125
2022-11-20T21:16:05.330Z,148
2022-11-20T21:31:05.166Z,124
2022-11-20T21:46:05.783Z,124
2022-11-20T22:01:05.331Z,115
2022-11-20T22:16:05.617Z,136
2022-11-20T22:31:05.665Z,129
2022-11-20T22:46:05.422Z,134
2022-11-20T23:01:05.882Z,121
2022-11-20T23:16:05.692Z,122
2022-11-20T23:31:05.773Z,143
2022-11-20T23:46:05.029Z,154
